sensor_id;sensor_type;location;lat;lon;timestamp;P1;durP1;ratioP1;P2;durP2;ratioP2
663;SDS011;314;48.770;9.246;2022-09-30T00:00:03;3.90;;;2.35;;
663;SDS011;314;48.770;9.246;2022-09-30T00:02:29;6.18;;;2.25;;
663;SDS011;314;48.770;9.246;2022-09-30T00:04:55;2.17;;;1.95;;
663;SDS011;314;48.770;9.246;2022-09-30T00:07:21;2.20;;;1.77;;
663;SDS011;314;48.770;9.246;2022-09-30T00:09:48;4.22;;;2.70;;
663;SDS011;314;48.770;9.246;2022-09-30T00:12:14;2.38;;;1.73;;
663;SDS011;314;48.770;9.246;2022-09-30T00:14:41;2.50;;;2.00;;
663;SDS011;314;48.770;9.246;2022-09-30T00:17:07;2.70;;;1.95;;
663;SDS011;314;48.770;9.246;2022-09-30T00:19:34;1.75;;;1.65;;
663;SDS011;314;48.770;9.246;2022-09-30T00:22:00;3.28;;;1.80;;
663;SDS011;314;48.770;9.246;2022-09-30T00:24:26;5.22;;;2.30;;
663;SDS011;314;48.770;9.246;2022-09-30T00:26:52;9.38;;;2.70;;
663;SDS011;314;48.770;9.246;2022-09-30T00:29:18;5.75;;;2.22;;
663;SDS011;314;48.770;9.246;2022-09-30T00:31:44;4.05;;;2.72;;
663;SDS011;314;48.770;9.246;2022-09-30T00:34:10;2.10;;;1.85;;
663;SDS011;314;48.770;9.246;2022-09-30T00:36:47;6.93;;;1.65;;
663;SDS011;314;48.770;9.246;2022-09-30T00:41:47;3.08;;;1.73;;
663;SDS011;314;48.770;9.246;2022-09-30T00:47:03;1.98;;;1.63;;
663;SDS011;314;48.770;9.246;2022-09-30T00:49:30;3.40;;;2.53;;
663;SDS011;314;48.770;9.246;2022-09-30T00:51:57;2.55;;;1.85;;
663;SDS011;314;48.770;9.246;2022-09-30T00:54:25;2.45;;;1.80;;
663;SDS011;314;48.770;9.246;2022-09-30T00:56:54;3.67;;;2.00;;
663;SDS011;314;48.770;9.246;2022-09-30T00:59:30;2.40;;;1.58;;
663;SDS011;314;48.770;9.246;2022-09-30T01:01:57;3.70;;;2.13;;
663;SDS011;314;48.770;9.246;2022-09-30T01:04:24;3.25;;;2.35;;
663;SDS011;314;48.770;9.246;2022-09-30T01:06:50;5.78;;;2.83;;
663;SDS011;314;48.770;9.246;2022-09-30T01:09:17;2.70;;;1.70;;
663;SDS011;314;48.770;9.246;2022-09-30T01:11:43;4.05;;;2.20;;
663;SDS011;314;48.770;9.246;2022-09-30T01:14:14;2.53;;;1.60;;
663;SDS011;314;48.770;9.246;2022-09-30T01:19:23;2.92;;;2.15;;
663;SDS011;314;48.770;9.246;2022-09-30T01:32:33;4.45;;;3.38;;
663;SDS011;314;48.770;9.246;2022-09-30T01:43:01;2.08;;;1.40;;
663;SDS011;314;48.770;9.246;2022-09-30T01:45:34;3.97;;;2.88;;
663;SDS011;314;48.770;9.246;2022-09-30T01:48:05;7.72;;;2.55;;
663;SDS011;314;48.770;9.246;2022-09-30T01:50:51;2.72;;;2.10;;
663;SDS011;314;48.770;9.246;2022-09-30T01:56:45;4.13;;;1.83;;
663;SDS011;314;48.770;9.246;2022-09-30T01:58:56;5.63;;;3.20;;
663;SDS011;314;48.770;9.246;2022-09-30T02:01:25;4.22;;;2.80;;
663;SDS011;314;48.770;9.246;2022-09-30T02:03:57;2.95;;;2.78;;
663;SDS011;314;48.770;9.246;2022-09-30T02:06:25;4.68;;;2.45;;
663;SDS011;314;48.770;9.246;2022-09-30T02:08:56;2.88;;;2.63;;
663;SDS011;314;48.770;9.246;2022-09-30T02:11:25;5.63;;;3.75;;
663;SDS011;314;48.770;9.246;2022-09-30T02:16:25;2.67;;;2.42;;
663;SDS011;314;48.770;9.246;2022-09-30T02:18:54;4.63;;;2.72;;
663;SDS011;314;48.770;9.246;2022-09-30T02:21:25;4.07;;;2.72;;
663;SDS011;314;48.770;9.246;2022-09-30T02:23:53;6.55;;;2.63;;
663;SDS011;314;48.770;9.246;2022-09-30T02:26:24;2.40;;;1.92;;
663;SDS011;314;48.770;9.246;2022-09-30T02:28:55;5.93;;;2.05;;
663;SDS011;314;48.770;9.246;2022-09-30T02:31:22;9.00;;;2.80;;
663;SDS011;314;48.770;9.246;2022-09-30T02:33:50;3.95;;;2.67;;
663;SDS011;314;48.770;9.246;2022-09-30T02:36:20;4.57;;;2.35;;
663;SDS011;314;48.770;9.246;2022-09-30T02:38:49;4.13;;;2.97;;
663;SDS011;314;48.770;9.246;2022-09-30T02:41:22;4.38;;;3.10;;
663;SDS011;314;48.770;9.246;2022-09-30T02:43:50;4.55;;;2.45;;
663;SDS011;314;48.770;9.246;2022-09-30T02:51:16;4.15;;;2.35;;
663;SDS011;314;48.770;9.246;2022-09-30T02:53:51;6.07;;;2.72;;
663;SDS011;314;48.770;9.246;2022-09-30T02:58:59;4.93;;;2.38;;
663;SDS011;314;48.770;9.246;2022-09-30T03:01:25;3.33;;;2.70;;
663;SDS011;314;48.770;9.246;2022-09-30T03:03:52;3.25;;;2.17;;
663;SDS011;314;48.770;9.246;2022-09-30T03:06:20;8.95;;;4.00;;
663;SDS011;314;48.770;9.246;2022-09-30T03:08:46;5.68;;;2.88;;
663;SDS011;314;48.770;9.246;2022-09-30T03:11:22;5.65;;;3.33;;
663;SDS011;314;48.770;9.246;2022-09-30T03:21:52;4.13;;;2.38;;
663;SDS011;314;48.770;9.246;2022-09-30T03:32:29;3.47;;;2.38;;
663;SDS011;314;48.770;9.246;2022-09-30T03:37:33;10.93;;;3.47;;
663;SDS011;314;48.770;9.246;2022-09-30T03:45:10;4.70;;;3.45;;
663;SDS011;314;48.770;9.246;2022-09-30T03:47:39;11.25;;;4.25;;
663;SDS011;314;48.770;9.246;2022-09-30T03:50:08;7.65;;;4.00;;
663;SDS011;314;48.770;9.246;2022-09-30T03:52:36;14.10;;;4.60;;
663;SDS011;314;48.770;9.246;2022-09-30T03:55:04;5.88;;;2.60;;
663;SDS011;314;48.770;9.246;2022-09-30T03:57:32;4.22;;;2.90;;
663;SDS011;314;48.770;9.246;2022-09-30T03:59:58;23.67;;;4.68;;
663;SDS011;314;48.770;9.246;2022-09-30T04:02:25;7.78;;;3.05;;
663;SDS011;314;48.770;9.246;2022-09-30T04:04:51;9.07;;;3.80;;
663;SDS011;314;48.770;9.246;2022-09-30T04:07:18;7.65;;;3.45;;
663;SDS011;314;48.770;9.246;2022-09-30T04:09:44;4.47;;;2.90;;
663;SDS011;314;48.770;9.246;2022-09-30T04:12:10;6.55;;;3.75;;
663;SDS011;314;48.770;9.246;2022-09-30T04:14:36;3.28;;;2.72;;
663;SDS011;314;48.770;9.246;2022-09-30T04:17:02;5.00;;;3.55;;
663;SDS011;314;48.770;9.246;2022-09-30T04:19:29;11.35;;;3.33;;
663;SDS011;314;48.770;9.246;2022-09-30T04:21:55;7.10;;;3.15;;
663;SDS011;314;48.770;9.246;2022-09-30T04:24:21;5.00;;;2.58;;
663;SDS011;314;48.770;9.246;2022-09-30T04:26:48;10.25;;;4.20;;
663;SDS011;314;48.770;9.246;2022-09-30T04:29:14;5.40;;;3.25;;
663;SDS011;314;48.770;9.246;2022-09-30T04:31:41;3.50;;;2.80;;
663;SDS011;314;48.770;9.246;2022-09-30T04:34:07;7.97;;;3.00;;
663;SDS011;314;48.770;9.246;2022-09-30T04:36:34;7.15;;;4.07;;
663;SDS011;314;48.770;9.246;2022-09-30T04:39:01;2.90;;;2.28;;
663;SDS011;314;48.770;9.246;2022-09-30T04:41:27;4.22;;;2.35;;
663;SDS011;314;48.770;9.246;2022-09-30T04:43:53;3.17;;;2.75;;
663;SDS011;314;48.770;9.246;2022-09-30T04:46:20;8.65;;;3.60;;
663;SDS011;314;48.770;9.246;2022-09-30T04:48:47;6.47;;;4.30;;
663;SDS011;314;48.770;9.246;2022-09-30T04:51:14;8.45;;;3.15;;
663;SDS011;314;48.770;9.246;2022-09-30T04:53:40;4.47;;;3.00;;
663;SDS011;314;48.770;9.246;2022-09-30T04:56:07;7.63;;;4.10;;
663;SDS011;314;48.770;9.246;2022-09-30T04:58:33;3.70;;;3.50;;
663;SDS011;314;48.770;9.246;2022-09-30T05:01:03;4.50;;;2.83;;
663;SDS011;314;48.770;9.246;2022-09-30T05:03:29;10.68;;;3.60;;
663;SDS011;314;48.770;9.246;2022-09-30T05:05:55;7.53;;;3.17;;
663;SDS011;314;48.770;9.246;2022-09-30T05:08:22;5.03;;;2.78;;
663;SDS011;314;48.770;9.246;2022-09-30T05:10:58;9.98;;;3.55;;
663;SDS011;314;48.770;9.246;2022-09-30T05:13:25;5.55;;;2.60;;
663;SDS011;314;48.770;9.246;2022-09-30T05:15:51;4.55;;;3.03;;
663;SDS011;314;48.770;9.246;2022-09-30T05:18:18;4.60;;;2.70;;
663;SDS011;314;48.770;9.246;2022-09-30T05:20:44;8.48;;;3.58;;
663;SDS011;314;48.770;9.246;2022-09-30T05:23:13;4.70;;;2.47;;
663;SDS011;314;48.770;9.246;2022-09-30T05:25:39;8.05;;;2.72;;
663;SDS011;314;48.770;9.246;2022-09-30T05:28:05;4.63;;;3.22;;
663;SDS011;314;48.770;9.246;2022-09-30T05:30:32;5.10;;;3.03;;
663;SDS011;314;48.770;9.246;2022-09-30T05:32:58;6.35;;;2.95;;
663;SDS011;314;48.770;9.246;2022-09-30T05:35:24;5.93;;;3.58;;
663;SDS011;314;48.770;9.246;2022-09-30T05:37:50;9.63;;;4.30;;
663;SDS011;314;48.770;9.246;2022-09-30T05:40:16;5.75;;;3.45;;
663;SDS011;314;48.770;9.246;2022-09-30T05:42:43;12.50;;;4.95;;
663;SDS011;314;48.770;9.246;2022-09-30T05:45:11;14.95;;;4.38;;
663;SDS011;314;48.770;9.246;2022-09-30T05:47:37;11.88;;;5.43;;
663;SDS011;314;48.770;9.246;2022-09-30T05:50:03;9.88;;;4.70;;
663;SDS011;314;48.770;9.246;2022-09-30T05:52:29;4.57;;;3.95;;
663;SDS011;314;48.770;9.246;2022-09-30T05:54:56;6.35;;;3.10;;
663;SDS011;314;48.770;9.246;2022-09-30T05:57:25;5.80;;;5.20;;
663;SDS011;314;48.770;9.246;2022-09-30T05:59:52;5.70;;;4.07;;
663;SDS011;314;48.770;9.246;2022-09-30T06:02:19;13.00;;;5.43;;
663;SDS011;314;48.770;9.246;2022-09-30T06:04:45;17.17;;;6.30;;
663;SDS011;314;48.770;9.246;2022-09-30T06:07:11;8.05;;;4.35;;
663;SDS011;314;48.770;9.246;2022-09-30T06:21:15;21.73;;;7.35;;
663;SDS011;314;48.770;9.246;2022-09-30T06:23:42;11.88;;;6.05;;
663;SDS011;314;48.770;9.246;2022-09-30T06:26:08;10.15;;;4.97;;
663;SDS011;314;48.770;9.246;2022-09-30T06:28:35;11.02;;;5.80;;
663;SDS011;314;48.770;9.246;2022-09-30T06:31:02;8.70;;;5.68;;
663;SDS011;314;48.770;9.246;2022-09-30T06:33:28;14.90;;;3.97;;
663;SDS011;314;48.770;9.246;2022-09-30T06:35:55;10.55;;;3.80;;
663;SDS011;314;48.770;9.246;2022-09-30T06:38:22;11.32;;;4.30;;
663;SDS011;314;48.770;9.246;2022-09-30T06:40:48;5.80;;;3.53;;
663;SDS011;314;48.770;9.246;2022-09-30T06:43:15;5.85;;;3.28;;
663;SDS011;314;48.770;9.246;2022-09-30T06:45:41;11.75;;;5.82;;
663;SDS011;314;48.770;9.246;2022-09-30T06:48:08;10.73;;;5.18;;
663;SDS011;314;48.770;9.246;2022-09-30T06:50:34;9.55;;;4.85;;
663;SDS011;314;48.770;9.246;2022-09-30T06:53:03;11.68;;;5.90;;
663;SDS011;314;48.770;9.246;2022-09-30T06:55:33;9.13;;;5.53;;
663;SDS011;314;48.770;9.246;2022-09-30T06:58:02;9.60;;;4.30;;
663;SDS011;314;48.770;9.246;2022-09-30T07:00:28;10.38;;;4.30;;
663;SDS011;314;48.770;9.246;2022-09-30T07:02:55;16.83;;;5.75;;
663;SDS011;314;48.770;9.246;2022-09-30T07:05:21;11.65;;;4.28;;
663;SDS011;314;48.770;9.246;2022-09-30T07:07:49;19.35;;;5.38;;
663;SDS011;314;48.770;9.246;2022-09-30T07:10:16;8.50;;;3.97;;
663;SDS011;314;48.770;9.246;2022-09-30T07:12:42;13.73;;;4.85;;
663;SDS011;314;48.770;9.246;2022-09-30T07:15:09;8.00;;;4.00;;
663;SDS011;314;48.770;9.246;2022-09-30T07:17:35;10.40;;;3.92;;
663;SDS011;314;48.770;9.246;2022-09-30T07:20:01;8.10;;;4.10;;
663;SDS011;314;48.770;9.246;2022-09-30T07:22:27;8.55;;;3.67;;
663;SDS011;314;48.770;9.246;2022-09-30T07:24:58;16.17;;;6.32;;
663;SDS011;314;48.770;9.246;2022-09-30T07:27:26;13.82;;;6.38;;
663;SDS011;314;48.770;9.246;2022-09-30T07:29:52;12.38;;;5.07;;
663;SDS011;314;48.770;9.246;2022-09-30T07:32:19;14.75;;;5.07;;
663;SDS011;314;48.770;9.246;2022-09-30T07:34:46;7.85;;;5.10;;
663;SDS011;314;48.770;9.246;2022-09-30T07:37:13;9.10;;;4.80;;
663;SDS011;314;48.770;9.246;2022-09-30T07:39:40;5.50;;;4.05;;
663;SDS011;314;48.770;9.246;2022-09-30T07:42:06;8.60;;;5.30;;
663;SDS011;314;48.770;9.246;2022-09-30T07:44:32;9.85;;;5.22;;
663;SDS011;314;48.770;9.246;2022-09-30T07:47:01;7.22;;;3.75;;
663;SDS011;314;48.770;9.246;2022-09-30T07:49:27;8.70;;;5.13;;
663;SDS011;314;48.770;9.246;2022-09-30T07:51:57;4.65;;;2.78;;
663;SDS011;314;48.770;9.246;2022-09-30T07:54:26;14.07;;;6.43;;
663;SDS011;314;48.770;9.246;2022-09-30T07:56:53;15.13;;;5.88;;
663;SDS011;314;48.770;9.246;2022-09-30T07:59:19;9.95;;;4.40;;
663;SDS011;314;48.770;9.246;2022-09-30T08:01:46;12.70;;;3.67;;
663;SDS011;314;48.770;9.246;2022-09-30T08:04:13;16.50;;;6.63;;
663;SDS011;314;48.770;9.246;2022-09-30T08:06:41;11.52;;;5.43;;
663;SDS011;314;48.770;9.246;2022-09-30T08:09:07;12.68;;;5.65;;
663;SDS011;314;48.770;9.246;2022-09-30T08:11:34;8.27;;;5.60;;
663;SDS011;314;48.770;9.246;2022-09-30T08:14:01;8.93;;;5.85;;
663;SDS011;314;48.770;9.246;2022-09-30T08:16:27;6.78;;;3.58;;
663;SDS011;314;48.770;9.246;2022-09-30T08:18:57;6.65;;;4.35;;
663;SDS011;314;48.770;9.246;2022-09-30T08:21:23;9.45;;;5.30;;
663;SDS011;314;48.770;9.246;2022-09-30T08:23:50;7.80;;;4.47;;
663;SDS011;314;48.770;9.246;2022-09-30T08:26:16;8.35;;;4.25;;
663;SDS011;314;48.770;9.246;2022-09-30T08:28:42;9.98;;;5.28;;
663;SDS011;314;48.770;9.246;2022-09-30T08:31:18;10.68;;;5.90;;
663;SDS011;314;48.770;9.246;2022-09-30T08:33:44;9.73;;;4.85;;
663;SDS011;314;48.770;9.246;2022-09-30T08:36:16;17.02;;;6.75;;
663;SDS011;314;48.770;9.246;2022-09-30T08:38:42;8.45;;;3.88;;
663;SDS011;314;48.770;9.246;2022-09-30T08:53:40;13.88;;;6.63;;
663;SDS011;314;48.770;9.246;2022-09-30T08:56:07;11.52;;;6.38;;
663;SDS011;314;48.770;9.246;2022-09-30T08:58:38;12.73;;;6.07;;
663;SDS011;314;48.770;9.246;2022-09-30T09:03:44;10.55;;;5.47;;
663;SDS011;314;48.770;9.246;2022-09-30T09:06:23;13.68;;;6.35;;
663;SDS011;314;48.770;9.246;2022-09-30T09:23:59;10.07;;;4.13;;
663;SDS011;314;48.770;9.246;2022-09-30T09:26:25;14.75;;;7.57;;
663;SDS011;314;48.770;9.246;2022-09-30T09:31:18;12.02;;;6.50;;
663;SDS011;314;48.770;9.246;2022-09-30T09:33:45;14.38;;;7.35;;
663;SDS011;314;48.770;9.246;2022-09-30T09:36:13;8.85;;;5.93;;
663;SDS011;314;48.770;9.246;2022-09-30T09:41:32;12.32;;;6.80;;
663;SDS011;314;48.770;9.246;2022-09-30T09:44:06;12.15;;;5.43;;
663;SDS011;314;48.770;9.246;2022-09-30T09:49:34;11.38;;;5.68;;
663;SDS011;314;48.770;9.246;2022-09-30T09:54:41;11.15;;;5.07;;
663;SDS011;314;48.770;9.246;2022-09-30T09:57:11;13.02;;;5.15;;
663;SDS011;314;48.770;9.246;2022-09-30T09:59:55;7.93;;;5.03;;
663;SDS011;314;48.770;9.246;2022-09-30T10:02:26;10.43;;;5.10;;
663;SDS011;314;48.770;9.246;2022-09-30T10:04:53;14.25;;;5.40;;
663;SDS011;314;48.770;9.246;2022-09-30T10:07:28;11.23;;;6.38;;
663;SDS011;314;48.770;9.246;2022-09-30T10:10:05;9.65;;;5.40;;
663;SDS011;314;48.770;9.246;2022-09-30T10:12:32;10.23;;;5.88;;
663;SDS011;314;48.770;9.246;2022-09-30T10:14:59;10.85;;;5.22;;
663;SDS011;314;48.770;9.246;2022-09-30T10:19:59;13.13;;;6.07;;
663;SDS011;314;48.770;9.246;2022-09-30T10:22:30;8.48;;;4.25;;
663;SDS011;314;48.770;9.246;2022-09-30T10:25:38;10.52;;;5.47;;
663;SDS011;314;48.770;9.246;2022-09-30T10:27:47;4.57;;;3.60;;
663;SDS011;314;48.770;9.246;2022-09-30T10:30:28;7.68;;;5.40;;
663;SDS011;314;48.770;9.246;2022-09-30T10:32:55;9.60;;;4.35;;
663;SDS011;314;48.770;9.246;2022-09-30T10:35:21;14.30;;;6.20;;
663;SDS011;314;48.770;9.246;2022-09-30T10:37:52;9.27;;;5.28;;
663;SDS011;314;48.770;9.246;2022-09-30T10:40:18;9.82;;;6.40;;
663;SDS011;314;48.770;9.246;2022-09-30T10:42:51;6.85;;;2.95;;
663;SDS011;314;48.770;9.246;2022-09-30T10:45:19;21.27;;;5.13;;
663;SDS011;314;48.770;9.246;2022-09-30T10:47:47;7.25;;;4.05;;
663;SDS011;314;48.770;9.246;2022-09-30T10:50:14;5.80;;;3.78;;
663;SDS011;314;48.770;9.246;2022-09-30T10:55:41;4.80;;;2.65;;
663;SDS011;314;48.770;9.246;2022-09-30T10:58:22;5.53;;;3.50;;
663;SDS011;314;48.770;9.246;2022-09-30T11:00:49;6.18;;;3.03;;
663;SDS011;314;48.770;9.246;2022-09-30T11:03:24;10.82;;;3.70;;
663;SDS011;314;48.770;9.246;2022-09-30T11:05:53;6.60;;;3.08;;
663;SDS011;314;48.770;9.246;2022-09-30T11:08:29;5.05;;;3.05;;
663;SDS011;314;48.770;9.246;2022-09-30T11:13:23;5.30;;;2.10;;
663;SDS011;314;48.770;9.246;2022-09-30T11:21:16;6.18;;;2.88;;
663;SDS011;314;48.770;9.246;2022-09-30T11:23:44;6.78;;;3.45;;
663;SDS011;314;48.770;9.246;2022-09-30T11:26:33;6.47;;;2.90;;
663;SDS011;314;48.770;9.246;2022-09-30T11:29:19;7.60;;;3.38;;
663;SDS011;314;48.770;9.246;2022-09-30T11:31:57;5.47;;;2.45;;
663;SDS011;314;48.770;9.246;2022-09-30T11:44:33;7.38;;;2.45;;
663;SDS011;314;48.770;9.246;2022-09-30T11:59:56;4.22;;;2.00;;
663;SDS011;314;48.770;9.246;2022-09-30T12:02:34;2.45;;;1.80;;
663;SDS011;314;48.770;9.246;2022-09-30T12:10:22;2.90;;;1.75;;
663;SDS011;314;48.770;9.246;2022-09-30T12:12:52;3.33;;;2.10;;
663;SDS011;314;48.770;9.246;2022-09-30T12:15:21;2.85;;;1.50;;
663;SDS011;314;48.770;9.246;2022-09-30T12:17:49;1.75;;;1.38;;
663;SDS011;314;48.770;9.246;2022-09-30T12:26:01;2.42;;;1.40;;
663;SDS011;314;48.770;9.246;2022-09-30T12:34:20;1.95;;;1.20;;
663;SDS011;314;48.770;9.246;2022-09-30T12:36:57;2.35;;;1.20;;
663;SDS011;314;48.770;9.246;2022-09-30T12:42:14;1.30;;;0.90;;
663;SDS011;314;48.770;9.246;2022-09-30T12:45:05;0.80;;;0.70;;
663;SDS011;314;48.770;9.246;2022-09-30T12:47:54;1.10;;;1.00;;
663;SDS011;314;48.770;9.246;2022-09-30T12:50:23;0.80;;;0.70;;
663;SDS011;314;48.770;9.246;2022-09-30T12:52:52;3.40;;;1.10;;
663;SDS011;314;48.770;9.246;2022-09-30T12:55:26;1.40;;;1.00;;
663;SDS011;314;48.770;9.246;2022-09-30T12:57:53;4.65;;;1.45;;
663;SDS011;314;48.770;9.246;2022-09-30T13:00:24;1.30;;;1.10;;
663;SDS011;314;48.770;9.246;2022-09-30T13:02:55;0.95;;;0.80;;
663;SDS011;314;48.770;9.246;2022-09-30T13:05:41;1.60;;;1.20;;
663;SDS011;314;48.770;9.246;2022-09-30T13:18:01;1.85;;;0.95;;
663;SDS011;314;48.770;9.246;2022-09-30T13:26:04;1.25;;;1.02;;
663;SDS011;314;48.770;9.246;2022-09-30T13:28:37;1.42;;;0.98;;
663;SDS011;314;48.770;9.246;2022-09-30T13:31:10;4.40;;;0.90;;
663;SDS011;314;48.770;9.246;2022-09-30T13:33:42;0.98;;;0.80;;
663;SDS011;314;48.770;9.246;2022-09-30T13:36:18;1.08;;;0.77;;
663;SDS011;314;48.770;9.246;2022-09-30T13:39:04;3.17;;;1.60;;
663;SDS011;314;48.770;9.246;2022-09-30T13:41:30;1.48;;;1.02;;
663;SDS011;314;48.770;9.246;2022-09-30T13:44:07;2.30;;;0.90;;
663;SDS011;314;48.770;9.246;2022-09-30T13:47:12;1.08;;;0.98;;
663;SDS011;314;48.770;9.246;2022-09-30T13:52:24;0.90;;;0.80;;
663;SDS011;314;48.770;9.246;2022-09-30T13:54:51;1.10;;;0.98;;
663;SDS011;314;48.770;9.246;2022-09-30T13:57:24;0.75;;;0.68;;
663;SDS011;314;48.770;9.246;2022-09-30T14:00:11;0.60;;;0.60;;
663;SDS011;314;48.770;9.246;2022-09-30T14:05:32;1.02;;;0.60;;
663;SDS011;314;48.770;9.246;2022-09-30T14:08:13;3.05;;;0.88;;
663;SDS011;314;48.770;9.246;2022-09-30T14:13:15;1.77;;;1.08;;
663;SDS011;314;48.770;9.246;2022-09-30T14:20:52;1.33;;;0.90;;
663;SDS011;314;48.770;9.246;2022-09-30T14:23:23;10.57;;;1.02;;
663;SDS011;314;48.770;9.246;2022-09-30T14:28:33;3.38;;;1.05;;
663;SDS011;314;48.770;9.246;2022-09-30T14:31:00;0.90;;;0.82;;
663;SDS011;314;48.770;9.246;2022-09-30T14:33:32;1.25;;;1.00;;
663;SDS011;314;48.770;9.246;2022-09-30T14:36:00;3.45;;;1.20;;
663;SDS011;314;48.770;9.246;2022-09-30T14:38:27;1.00;;;0.90;;
663;SDS011;314;48.770;9.246;2022-09-30T14:40:55;0.88;;;0.60;;
663;SDS011;314;48.770;9.246;2022-09-30T14:43:24;2.25;;;0.73;;
663;SDS011;314;48.770;9.246;2022-09-30T14:45:53;0.77;;;0.70;;
663;SDS011;314;48.770;9.246;2022-09-30T14:48:28;4.15;;;1.20;;
663;SDS011;314;48.770;9.246;2022-09-30T14:51:00;2.03;;;1.00;;
663;SDS011;314;48.770;9.246;2022-09-30T14:53:30;1.70;;;1.30;;
663;SDS011;314;48.770;9.246;2022-09-30T14:55:57;1.50;;;1.40;;
663;SDS011;314;48.770;9.246;2022-09-30T14:58:25;1.73;;;1.42;;
663;SDS011;314;48.770;9.246;2022-09-30T15:01:02;1.58;;;1.02;;
663;SDS011;314;48.770;9.246;2022-09-30T15:03:29;1.83;;;1.75;;
663;SDS011;314;48.770;9.246;2022-09-30T15:05:57;2.25;;;1.10;;
663;SDS011;314;48.770;9.246;2022-09-30T15:08:23;1.33;;;1.30;;
663;SDS011;314;48.770;9.246;2022-09-30T15:10:50;4.03;;;1.40;;
663;SDS011;314;48.770;9.246;2022-09-30T15:13:17;1.17;;;1.15;;
663;SDS011;314;48.770;9.246;2022-09-30T15:15:44;2.20;;;1.50;;
663;SDS011;314;48.770;9.246;2022-09-30T15:20:57;1.58;;;1.40;;
663;SDS011;314;48.770;9.246;2022-09-30T15:23:29;1.80;;;1.25;;
663;SDS011;314;48.770;9.246;2022-09-30T15:25:56;1.48;;;1.40;;
663;SDS011;314;48.770;9.246;2022-09-30T15:28:22;3.28;;;1.77;;
663;SDS011;314;48.770;9.246;2022-09-30T15:30:49;4.68;;;1.83;;
663;SDS011;314;48.770;9.246;2022-09-30T15:33:19;3.90;;;1.88;;
663;SDS011;314;48.770;9.246;2022-09-30T15:35:48;1.33;;;1.23;;
663;SDS011;314;48.770;9.246;2022-09-30T15:38:24;3.33;;;2.00;;
663;SDS011;314;48.770;9.246;2022-09-30T15:40:54;1.08;;;0.98;;
663;SDS011;314;48.770;9.246;2022-09-30T15:43:33;4.05;;;1.90;;
663;SDS011;314;48.770;9.246;2022-09-30T15:48:45;3.10;;;1.63;;
663;SDS011;314;48.770;9.246;2022-09-30T15:51:28;4.35;;;1.60;;
663;SDS011;314;48.770;9.246;2022-09-30T15:53:55;2.47;;;1.33;;
663;SDS011;314;48.770;9.246;2022-09-30T15:56:31;2.47;;;1.55;;
663;SDS011;314;48.770;9.246;2022-09-30T15:59:05;2.25;;;1.23;;
663;SDS011;314;48.770;9.246;2022-09-30T16:01:38;1.83;;;1.48;;
663;SDS011;314;48.770;9.246;2022-09-30T16:04:07;2.75;;;2.55;;
663;SDS011;314;48.770;9.246;2022-09-30T16:09:04;1.70;;;1.20;;
663;SDS011;314;48.770;9.246;2022-09-30T16:11:35;2.08;;;1.45;;
663;SDS011;314;48.770;9.246;2022-09-30T16:14:04;2.80;;;1.65;;
663;SDS011;314;48.770;9.246;2022-09-30T16:16:33;1.35;;;1.25;;
663;SDS011;314;48.770;9.246;2022-09-30T16:19:00;2.35;;;1.35;;
663;SDS011;314;48.770;9.246;2022-09-30T16:23:53;2.67;;;1.65;;
663;SDS011;314;48.770;9.246;2022-09-30T16:26:20;2.55;;;1.08;;
663;SDS011;314;48.770;9.246;2022-09-30T16:28:49;4.03;;;2.40;;
663;SDS011;314;48.770;9.246;2022-09-30T16:31:15;8.23;;;2.20;;
663;SDS011;314;48.770;9.246;2022-09-30T16:33:42;3.25;;;2.17;;
663;SDS011;314;48.770;9.246;2022-09-30T16:36:09;1.33;;;1.13;;
663;SDS011;314;48.770;9.246;2022-09-30T16:38:36;1.88;;;1.45;;
663;SDS011;314;48.770;9.246;2022-09-30T16:41:03;1.73;;;1.15;;
663;SDS011;314;48.770;9.246;2022-09-30T16:43:29;2.92;;;1.30;;
663;SDS011;314;48.770;9.246;2022-09-30T16:45:59;3.90;;;1.40;;
663;SDS011;314;48.770;9.246;2022-09-30T16:48:25;1.52;;;1.10;;
663;SDS011;314;48.770;9.246;2022-09-30T16:53:20;2.15;;;1.52;;
663;SDS011;314;48.770;9.246;2022-09-30T16:55:46;2.03;;;1.40;;
663;SDS011;314;48.770;9.246;2022-09-30T16:58:12;2.15;;;1.85;;
663;SDS011;314;48.770;9.246;2022-09-30T17:00:40;3.45;;;1.35;;
663;SDS011;314;48.770;9.246;2022-09-30T17:03:08;3.22;;;1.25;;
663;SDS011;314;48.770;9.246;2022-09-30T17:05:38;1.45;;;1.38;;
663;SDS011;314;48.770;9.246;2022-09-30T17:08:05;5.50;;;1.77;;
663;SDS011;314;48.770;9.246;2022-09-30T17:10:34;3.28;;;1.45;;
663;SDS011;314;48.770;9.246;2022-09-30T17:13:00;2.95;;;1.33;;
663;SDS011;314;48.770;9.246;2022-09-30T17:15:28;5.43;;;2.17;;
663;SDS011;314;48.770;9.246;2022-09-30T17:17:54;3.05;;;1.90;;
663;SDS011;314;48.770;9.246;2022-09-30T17:20:20;3.20;;;1.88;;
663;SDS011;314;48.770;9.246;2022-09-30T17:22:47;5.00;;;1.55;;
663;SDS011;314;48.770;9.246;2022-09-30T17:25:13;2.10;;;1.95;;
663;SDS011;314;48.770;9.246;2022-09-30T17:27:39;4.45;;;1.77;;
663;SDS011;314;48.770;9.246;2022-09-30T17:30:06;1.58;;;1.13;;
663;SDS011;314;48.770;9.246;2022-09-30T17:32:35;1.50;;;1.40;;
663;SDS011;314;48.770;9.246;2022-09-30T17:35:02;1.63;;;1.55;;
663;SDS011;314;48.770;9.246;2022-09-30T17:37:32;1.33;;;1.23;;
663;SDS011;314;48.770;9.246;2022-09-30T17:39:58;4.95;;;1.42;;
663;SDS011;314;48.770;9.246;2022-09-30T17:42:24;1.83;;;1.60;;
663;SDS011;314;48.770;9.246;2022-09-30T17:45:09;1.65;;;1.40;;
663;SDS011;314;48.770;9.246;2022-09-30T17:47:35;7.38;;;2.25;;
663;SDS011;314;48.770;9.246;2022-09-30T17:50:03;2.53;;;1.35;;
663;SDS011;314;48.770;9.246;2022-09-30T17:52:30;3.45;;;1.70;;
663;SDS011;314;48.770;9.246;2022-09-30T17:54:58;3.67;;;2.25;;
663;SDS011;314;48.770;9.246;2022-09-30T17:57:24;3.78;;;2.17;;
663;SDS011;314;48.770;9.246;2022-09-30T17:59:50;5.40;;;4.30;;
663;SDS011;314;48.770;9.246;2022-09-30T18:02:17;3.53;;;2.22;;
663;SDS011;314;48.770;9.246;2022-09-30T18:04:45;2.85;;;2.10;;
663;SDS011;314;48.770;9.246;2022-09-30T18:07:11;4.53;;;2.83;;
663;SDS011;314;48.770;9.246;2022-09-30T18:09:38;9.60;;;2.30;;
663;SDS011;314;48.770;9.246;2022-09-30T18:12:04;5.82;;;2.80;;
663;SDS011;314;48.770;9.246;2022-09-30T18:14:31;4.50;;;2.78;;
663;SDS011;314;48.770;9.246;2022-09-30T18:17:00;5.10;;;3.72;;
663;SDS011;314;48.770;9.246;2022-09-30T18:19:26;7.97;;;4.25;;
663;SDS011;314;48.770;9.246;2022-09-30T18:21:52;6.38;;;4.20;;
663;SDS011;314;48.770;9.246;2022-09-30T18:24:18;5.88;;;4.00;;
663;SDS011;314;48.770;9.246;2022-09-30T18:27:04;7.93;;;3.30;;
663;SDS011;314;48.770;9.246;2022-09-30T18:29:31;4.90;;;2.83;;
663;SDS011;314;48.770;9.246;2022-09-30T18:31:57;2.65;;;2.45;;
663;SDS011;314;48.770;9.246;2022-09-30T18:34:23;6.40;;;3.50;;
663;SDS011;314;48.770;9.246;2022-09-30T18:36:49;8.95;;;2.90;;
663;SDS011;314;48.770;9.246;2022-09-30T18:39:15;4.50;;;3.30;;
663;SDS011;314;48.770;9.246;2022-09-30T18:41:41;3.85;;;2.03;;
663;SDS011;314;48.770;9.246;2022-09-30T18:44:08;3.30;;;2.08;;
663;SDS011;314;48.770;9.246;2022-09-30T18:46:34;4.80;;;2.58;;
663;SDS011;314;48.770;9.246;2022-09-30T18:49:01;2.00;;;1.90;;
663;SDS011;314;48.770;9.246;2022-09-30T18:51:27;6.40;;;3.75;;
663;SDS011;314;48.770;9.246;2022-09-30T18:53:54;1.50;;;1.50;;
663;SDS011;314;48.770;9.246;2022-09-30T18:56:23;3.55;;;2.40;;
663;SDS011;314;48.770;9.246;2022-09-30T18:58:49;3.65;;;2.38;;
663;SDS011;314;48.770;9.246;2022-09-30T19:01:18;2.33;;;1.92;;
663;SDS011;314;48.770;9.246;2022-09-30T19:03:44;4.50;;;2.05;;
663;SDS011;314;48.770;9.246;2022-09-30T19:06:10;2.63;;;2.42;;
663;SDS011;314;48.770;9.246;2022-09-30T19:08:37;8.52;;;1.90;;
663;SDS011;314;48.770;9.246;2022-09-30T19:11:07;1.98;;;1.60;;
663;SDS011;314;48.770;9.246;2022-09-30T19:13:43;2.92;;;2.28;;
663;SDS011;314;48.770;9.246;2022-09-30T19:16:11;2.33;;;1.45;;
663;SDS011;314;48.770;9.246;2022-09-30T19:18:37;3.58;;;1.90;;
663;SDS011;314;48.770;9.246;2022-09-30T19:21:05;6.35;;;2.10;;
663;SDS011;314;48.770;9.246;2022-09-30T19:23:31;2.22;;;2.00;;
663;SDS011;314;48.770;9.246;2022-09-30T19:25:58;9.77;;;3.55;;
663;SDS011;314;48.770;9.246;2022-09-30T19:28:25;23.70;;;4.07;;